Time;durP1;ratioP1;P1;durP2;ratioP2;P2;SDS_P1;SDS_P2;PMS_P1;PMS_P2;Temp;Humidity;BMP_temperature;BMP_pressure;BME280_temperature;BME280_humidity;BME280_pressure;Samples;Min_cycle;Max_cycle;Signal;HPM_P1;HPM_P2
2022/11/17 00:00:16;;;;;;;9.98;7.22;;;8.60;99.90;;;;;;5156784;27;20055;-68
2022/11/17 00:02:42;;;;;;;9.30;7.13;;;8.20;99.90;;;;;;5156757;27;20091;-68
2022/11/17 00:05:08;;;;;;;9.63;7.05;;;8.60;99.90;;;;;;5156960;27;20038;-67
2022/11/17 00:07:33;;;;;;;9.20;6.43;;;8.20;99.90;;;;;;5157170;27;20047;-68
2022/11/17 00:09:59;;;;;;;9.48;6.55;;;8.40;99.90;;;;;;5156595;27;20459;-68
2022/11/17 00:15:09;;;;;;;9.25;7.40;;;8.40;99.90;;;;;;5156625;27;20133;-68
2022/11/17 00:17:35;;;;;;;8.93;6.68;;;8.50;99.90;;;;;;5156211;27;20086;-68
2022/11/17 00:22:45;;;;;;;10.70;6.70;;;8.20;99.90;;;;;;5138140;27;20057;-68
2022/11/17 00:25:10;;;;;;;9.75;6.68;;;8.30;99.90;;;;;;5156348;27;20137;-68
2022/11/17 00:27:36;;;;;;;8.43;6.10;;;8.60;99.90;;;;;;5156250;27;20129;-68
2022/11/17 00:30:03;;;;;;;8.20;6.03;;;8.70;99.90;;;;;;5156169;27;20039;-68
2022/11/17 00:35:13;;;;;;;10.15;7.00;;;8.30;99.90;;;;;;5156172;27;20542;-68
2022/11/17 00:38:25;;;;;;;8.63;6.00;;;8.50;99.90;;;;;;5156074;27;20042;-68
2022/11/17 00:40:25;;;;;;;8.90;6.32;;;8.30;99.90;;;;;;5144337;27;20058;-68
2022/11/17 00:42:51;;;;;;;9.13;6.38;;;8.60;99.90;;;;;;5137712;27;20106;-68
2022/11/17 00:45:16;;;;;;;9.50;6.45;;;8.60;99.90;;;;;;5155988;27;20466;-68
2022/11/17 00:47:42;;;;;;;10.68;7.30;;;8.20;99.90;;;;;;5136966;27;20045;-68
2022/11/17 00:50:08;;;;;;;9.77;6.70;;;8.40;99.90;;;;;;5155565;27;20463;-68
2022/11/17 00:52:34;;;;;;;8.18;6.07;;;8.00;99.90;;;;;;5155623;27;20050;-67
2022/11/17 00:55:00;;;;;;;9.45;7.32;;;8.00;99.90;;;;;;5137217;27;20046;-67
2022/11/17 00:57:26;;;;;;;8.00;7.20;;;8.30;99.90;;;;;;5155716;27;20049;-68
2022/11/17 00:59:52;;;;;;;10.25;6.60;;;8.80;99.90;;;;;;5137157;27;20039;-67
2022/11/17 01:02:17;;;;;;;7.72;5.90;;;8.10;99.90;;;;;;5155627;27;20133;-68
2022/11/17 01:04:43;;;;;;;9.38;6.68;;;8.00;99.90;;;;;;5137670;27;20038;-67
2022/11/17 01:07:09;;;;;;;7.15;5.65;;;8.80;99.90;;;;;;5155587;27;20099;-68
2022/11/17 01:09:34;;;;;;;10.80;6.47;;;8.40;99.90;;;;;;5137041;27;20046;-68
2022/11/17 01:12:00;;;;;;;7.35;4.90;;;8.60;99.90;;;;;;5155509;27;20054;-68
2022/11/17 01:14:29;;;;;;;7.90;6.18;;;8.20;99.90;;;;;;5155459;27;20047;-68
2022/11/17 01:16:55;;;;;;;9.25;6.38;;;8.20;99.90;;;;;;5155547;27;20394;-68
2022/11/17 01:19:22;;;;;;;8.65;5.93;;;8.70;99.90;;;;;;5155346;27;20050;-68
2022/11/17 01:21:48;;;;;;;9.95;7.00;;;8.70;99.90;;;;;;5136647;27;20054;-68
2022/11/17 01:24:15;;;;;;;7.43;5.95;;;8.20;99.90;;;;;;5119676;27;20098;-68
2022/11/17 01:26:41;;;;;;;9.02;6.90;;;7.90;99.90;;;;;;5155291;27;20078;-68
2022/11/17 01:29:09;;;;;;;8.80;5.30;;;8.50;99.90;;;;;;5155019;27;20486;-68
2022/11/17 01:31:37;;;;;;;7.78;5.93;;;8.00;99.90;;;;;;5155259;27;20039;-67
2022/11/17 01:34:04;;;;;;;8.23;6.07;;;8.00;99.90;;;;;;5155246;27;20039;-68
2022/11/17 01:39:19;;;;;;;8.55;6.55;;;8.10;99.90;;;;;;5155231;27;20123;-68
2022/11/17 01:41:45;;;;;;;7.70;5.68;;;8.30;99.90;;;;;;5136405;27;20120;-68
2022/11/17 01:44:48;;;;;;;6.63;4.93;;;8.20;99.90;;;;;;5155164;27;20047;-67
2022/11/17 01:47:31;;;;;;;8.60;5.95;;;8.00;99.90;;;;;;5155421;27;20053;-68
2022/11/17 01:50:02;;;;;;;9.32;5.72;;;7.90;99.90;;;;;;5155168;27;20046;-68
2022/11/17 01:52:30;;;;;;;8.45;5.70;;;8.10;99.90;;;;;;5154618;27;20090;-67
2022/11/17 01:54:57;;;;;;;10.40;5.35;;;7.90;99.90;;;;;;5155246;27;20058;-68
2022/11/17 01:57:34;;;;;;;6.90;5.22;;;8.30;99.90;;;;;;5155079;27;20039;-67
2022/11/17 02:00:07;;;;;;;6.63;4.72;;;7.80;99.90;;;;;;5156929;27;20117;-68
2022/11/17 02:02:34;;;;;;;7.78;5.50;;;7.90;99.90;;;;;;5159194;27;20123;-67
2022/11/17 02:05:15;;;;;;;7.65;4.97;;;8.40;99.90;;;;;;5159154;27;20106;-67
2022/11/17 02:07:43;;;;;;;8.80;5.65;;;7.90;99.90;;;;;;5159669;27;20061;-67
2022/11/17 02:10:09;;;;;;;6.97;4.93;;;8.30;99.90;;;;;;5158944;27;20035;-67
2022/11/17 02:12:35;;;;;;;7.88;5.45;;;8.20;99.90;;;;;;5158965;27;20053;-67
2022/11/17 02:15:02;;;;;;;6.95;5.03;;;8.00;99.90;;;;;;5158693;27;20619;-67
2022/11/17 02:17:48;;;;;;;9.13;5.65;;;8.00;99.90;;;;;;5158878;27;20039;-67
2022/11/17 02:20:21;;;;;;;7.70;5.03;;;7.90;99.90;;;;;;5159066;27;20053;-67
2022/11/17 02:22:56;;;;;;;;;;;8.00;99.90;;;;;;5123538;27;20051;-67
2022/11/17 02:25:50;;;;;;;10.25;5.72;;;7.90;99.90;;;;;;5158981;27;19919;-67
2022/11/17 02:28:23;;;;;;;6.90;4.93;;;8.00;99.90;;;;;;5105143;27;20050;-67
2022/11/17 02:31:01;;;;;;;7.30;5.03;;;7.80;99.90;;;;;;5158685;27;20578;-67
2022/11/17 02:33:49;;;;;;;8.27;5.25;;;8.20;99.90;;;;;;5158774;27;20042;-67
2022/11/17 02:36:14;;;;;;;7.88;4.78;;;7.90;99.90;;;;;;5158490;27;20058;-68
2022/11/17 02:38:55;;;;;;;8.70;5.95;;;8.20;99.90;;;;;;5158474;27;20042;-67
2022/11/17 02:41:33;;;;;;;8.80;5.50;;;8.00;99.90;;;;;;5139649;27;20283;-67
2022/11/17 02:44:12;;;;;;;6.82;5.88;;;7.90;99.90;;;;;;5122752;27;20046;-67
2022/11/17 02:46:45;;;;;;;7.10;5.03;;;8.30;99.90;;;;;;5158332;27;20043;-68
2022/11/17 02:49:35;;;;;;;7.53;5.43;;;7.90;99.90;;;;;;5158526;27;20038;-68
2022/11/17 02:52:03;;;;;;;7.63;4.93;;;8.10;99.90;;;;;;5127758;27;20093;-67
2022/11/17 02:54:31;;;;;;;7.65;5.40;;;8.00;99.90;;;;;;5139899;27;20047;-67
2022/11/17 02:56:56;;;;;;;8.52;5.68;;;7.80;99.90;;;;;;5158166;27;20067;-67
2022/11/17 02:59:28;;;;;;;7.00;5.50;;;8.10;99.90;;;;;;5105453;27;20038;-67
2022/11/17 03:02:21;;;;;;;8.85;6.03;;;8.50;99.90;;;;;;5139490;27;20043;-67
2022/11/17 03:05:04;;;;;;;7.65;5.22;;;8.00;99.90;;;;;;5158454;27;20049;-66
2022/11/17 03:07:42;;;;;;;7.60;5.30;;;7.90;99.90;;;;;;5139815;27;20093;-67
2022/11/17 03:10:15;;;;;;;6.80;4.60;;;8.00;99.90;;;;;;5139641;27;20413;-67
2022/11/17 03:12:52;;;;;;;8.65;5.50;;;7.90;99.90;;;;;;5157273;27;20075;-68
2022/11/17 03:15:59;;;;;;;6.60;5.00;;;7.90;99.90;;;;;;5157741;27;20046;-67
2022/11/17 03:18:43;;;;;;;6.53;5.55;;;8.00;99.90;;;;;;5128901;27;20047;-67
2022/11/17 03:21:23;;;;;;;6.97;5.45;;;8.00;99.90;;;;;;5157143;27;20051;-69
2022/11/17 03:24:10;;;;;;;5.90;4.72;;;7.90;99.90;;;;;;5139130;27;20078;-68
2022/11/17 03:26:39;;;;;;;7.43;5.15;;;7.80;99.90;;;;;;5157680;27;20050;-68
2022/11/17 03:29:09;;;;;;;6.55;5.75;;;8.20;99.90;;;;;;5139499;27;20054;-68
2022/11/17 03:31:37;;;;;;;7.40;5.45;;;8.10;99.90;;;;;;5139060;27;20111;-67
2022/11/17 03:34:08;;;;;;;7.85;6.05;;;7.80;99.90;;;;;;5139145;27;20058;-68
2022/11/17 03:36:38;;;;;;;7.82;6.13;;;7.90;99.90;;;;;;5157534;27;20042;-68
2022/11/17 03:39:15;;;;;;;8.93;6.40;;;8.00;99.90;;;;;;5139623;27;20475;-68
2022/11/17 03:41:44;;;;;;;9.95;6.45;;;7.70;99.90;;;;;;5156894;27;20134;-69
2022/11/17 03:44:12;;;;;;;7.93;5.60;;;7.70;99.90;;;;;;5157222;27;20047;-68
2022/11/17 03:46:41;;;;;;;7.70;5.53;;;8.30;99.90;;;;;;5138930;27;20047;-69
2022/11/17 03:49:08;;;;;;;9.98;7.32;;;7.70;99.90;;;;;;5157098;27;20042;-69
2022/11/17 03:51:34;;;;;;;8.52;6.15;;;7.90;99.90;;;;;;5138657;27;20054;-68
2022/11/17 03:54:00;;;;;;;9.07;6.80;;;7.70;99.90;;;;;;5138779;27;20134;-69
2022/11/17 03:56:43;;;;;;;7.80;6.03;;;7.80;99.90;;;;;;5156993;27;20054;-68
2022/11/17 03:59:23;;;;;;;9.07;7.00;;;7.30;99.90;;;;;;5138809;27;20049;-69
2022/11/17 04:01:50;;;;;;;7.88;6.70;;;7.40;99.90;;;;;;5121319;27;20134;-68
2022/11/17 04:04:18;;;;;;;8.88;7.22;;;7.70;99.90;;;;;;5156846;27;20419;-69
2022/11/17 04:06:43;;;;;;;10.30;7.65;;;8.10;99.90;;;;;;5156770;27;20053;-69
2022/11/17 04:09:09;;;;;;;11.90;6.72;;;7.70;99.90;;;;;;5156725;27;20496;-67
2022/11/17 04:17:03;;;;;;;10.95;7.13;;;8.20;99.90;;;;;;5156580;27;20046;-68
2022/11/17 04:19:29;;;;;;;10.20;7.60;;;7.70;99.90;;;;;;5156464;27;20550;-68
2022/11/17 04:21:55;;;;;;;10.70;7.63;;;7.30;99.90;;;;;;5155692;27;20039;-67
2022/11/17 04:24:20;;;;;;;11.38;8.15;;;7.60;99.90;;;;;;5156374;27;20509;-67
2022/11/17 04:29:31;;;;;;;9.63;7.30;;;7.50;99.90;;;;;;5156384;27;20042;-69
2022/11/17 04:31:56;;;;;;;8.52;6.85;;;7.30;99.90;;;;;;5156274;27;20398;-67
2022/11/17 04:34:22;;;;;;;10.23;6.97;;;7.40;99.90;;;;;;5156237;27;20087;-67
2022/11/17 04:36:48;;;;;;;11.80;7.90;;;7.50;99.90;;;;;;5156379;27;20470;-67
2022/11/17 04:39:14;;;;;;;11.70;8.70;;;7.80;99.90;;;;;;5156030;27;20069;-68
2022/11/17 04:41:53;;;;;;;11.57;7.55;;;7.20;99.90;;;;;;5155802;27;20062;-67
2022/11/17 04:44:23;;;;;;;10.65;7.25;;;7.10;99.90;;;;;;5156014;27;20050;-67
2022/11/17 04:46:49;;;;;;;10.93;7.38;;;7.40;99.90;;;;;;5120453;27;20074;-67
2022/11/17 04:49:16;;;;;;;10.52;7.85;;;7.30;99.90;;;;;;5156182;27;20517;-67
2022/11/17 04:51:43;;;;;;;9.40;6.45;;;7.10;99.90;;;;;;5155308;27;20046;-67
2022/11/17 04:54:11;;;;;;;10.13;7.70;;;7.40;99.90;;;;;;5155886;27;20043;-67
2022/11/17 04:56:37;;;;;;;10.25;7.90;;;7.40;99.90;;;;;;5120457;27;20043;-66
2022/11/17 04:59:03;;;;;;;13.02;8.60;;;7.20;99.90;;;;;;5155684;27;20039;-67
2022/11/17 05:01:29;;;;;;;10.45;7.47;;;7.30;99.90;;;;;;5155741;27;20039;-67
2022/11/17 05:03:58;;;;;;;9.02;6.63;;;7.20;99.90;;;;;;5155727;27;20050;-67
2022/11/17 05:06:33;;;;;;;14.77;8.07;;;6.70;99.90;;;;;;5155371;27;20490;-67
2022/11/17 05:09:05;;;;;;;9.68;7.22;;;6.90;99.90;;;;;;5155786;27;20047;-67
2022/11/17 05:14:17;;;;;;;10.75;7.82;;;6.90;99.90;;;;;;5155584;27;20118;-67
2022/11/17 05:19:29;;;;;;;9.55;7.43;;;7.10;99.90;;;;;;5155441;27;20485;-67
2022/11/17 05:21:55;;;;;;;10.98;8.35;;;7.50;99.90;;;;;;5154843;27;20099;-67
2022/11/17 05:24:21;;;;;;;9.88;7.65;;;6.80;99.90;;;;;;5155376;27;20054;-66
2022/11/17 05:26:48;;;;;;;9.25;6.55;;;6.70;99.90;;;;;;5155390;27;20042;-67
2022/11/17 05:29:17;;;;;;;9.00;5.68;;;7.10;99.90;;;;;;5155375;27;20139;-66
2022/11/17 05:31:43;;;;;;;9.07;6.45;;;6.70;99.90;;;;;;5155311;27;20478;-66
2022/11/17 05:34:11;;;;;;;9.93;6.20;;;7.20;99.90;;;;;;5154705;27;20084;-67
2022/11/17 05:36:37;;;;;;;7.10;5.82;;;6.70;99.90;;;;;;5137005;27;20082;-66
2022/11/17 05:39:03;;;;;;;7.20;6.13;;;7.10;99.90;;;;;;5155240;27;20038;-67
2022/11/17 05:41:29;;;;;;;8.95;6.57;;;6.70;99.90;;;;;;5136742;27;20058;-67
2022/11/17 05:43:56;;;;;;;8.55;5.82;;;6.80;99.90;;;;;;5119526;27;20114;-67
2022/11/17 05:46:22;;;;;;;7.35;5.50;;;7.40;99.90;;;;;;5137206;27;20050;-67
2022/11/17 05:48:49;;;;;;;6.45;5.07;;;6.00;99.90;;;;;;5137477;27;20089;-67
2022/11/17 05:51:16;;;;;;;7.90;5.10;;;6.60;99.90;;;;;;5154546;27;20038;-67
2022/11/17 05:53:42;;;;;;;7.85;5.22;;;6.60;99.90;;;;;;5155087;27;20123;-67
2022/11/17 05:56:30;;;;;;;6.80;4.55;;;6.50;99.90;;;;;;5136588;27;20089;-67
2022/11/17 05:59:22;;;;;;;7.63;5.70;;;6.50;99.90;;;;;;5136594;27;20043;-67
2022/11/17 06:02:20;;;;;;;7.13;4.95;;;6.70;99.90;;;;;;5135384;27;20521;-67
2022/11/17 06:04:48;;;;;;;7.47;5.43;;;6.60;99.90;;;;;;5111832;28;20058;-67
2022/11/17 06:07:16;;;;;;;8.75;4.90;;;6.70;99.90;;;;;;5134290;28;20042;-68
2022/11/17 06:09:42;;;;;;;8.63;4.50;;;6.80;99.90;;;;;;5134481;28;20432;-68
2022/11/17 06:12:10;;;;;;;7.07;5.05;;;6.60;99.90;;;;;;5134209;28;20046;-67
2022/11/17 06:14:38;;;;;;;7.03;4.25;;;6.90;99.90;;;;;;5116139;28;20043;-67
2022/11/17 06:17:23;;;;;;;7.28;4.97;;;6.90;99.90;;;;;;5134246;28;20398;-67
2022/11/17 06:19:54;;;;;;;6.05;4.45;;;6.40;99.90;;;;;;5115904;28;20047;-68
2022/11/17 06:22:20;;;;;;;7.95;5.35;;;6.90;99.90;;;;;;5133708;28;20051;-67
2022/11/17 06:24:46;;;;;;;9.15;5.20;;;6.60;99.90;;;;;;5116000;28;20054;-67
2022/11/17 06:27:14;;;;;;;8.10;4.97;;;6.80;99.90;;;;;;5115941;28;20058;-68
2022/11/17 06:29:41;;;;;;;6.70;4.90;;;6.50;99.90;;;;;;5134162;28;20118;-67
2022/11/17 06:32:07;;;;;;;7.95;5.28;;;6.70;99.90;;;;;;5099303;28;20051;-68
2022/11/17 06:34:34;;;;;;;5.25;3.90;;;6.60;99.90;;;;;;5099202;28;20118;-67
2022/11/17 06:37:00;;;;;;;7.47;4.65;;;7.00;99.90;;;;;;5098830;28;20043;-68
2022/11/17 06:39:25;;;;;;;7.60;5.20;;;6.70;99.90;;;;;;5115705;28;20053;-68
2022/11/17 06:41:51;;;;;;;7.10;4.68;;;6.90;99.90;;;;;;5115282;28;20058;-67
2022/11/17 06:44:17;;;;;;;6.78;4.28;;;6.80;99.90;;;;;;5134406;28;20063;-68
2022/11/17 06:46:42;;;;;;;6.55;5.03;;;6.40;99.90;;;;;;5117685;27;20547;-68
2022/11/17 06:49:08;;;;;;;6.72;4.75;;;6.70;99.90;;;;;;5119738;27;20399;-65
2022/11/17 06:51:34;;;;;;;7.15;4.40;;;6.70;99.90;;;;;;5137318;27;20390;-67
2022/11/17 06:54:00;;;;;;;7.97;4.88;;;6.40;99.90;;;;;;5137500;27;20043;-67
2022/11/17 06:56:27;;;;;;;7.65;5.25;;;7.10;99.90;;;;;;5119678;27;20087;-67
2022/11/17 06:58:53;;;;;;;6.38;4.65;;;6.70;99.90;;;;;;5137266;27;20088;-67
2022/11/17 07:01:19;;;;;;;8.68;5.30;;;6.40;99.90;;;;;;5119367;27;20039;-67
2022/11/17 07:03:44;;;;;;;9.10;5.05;;;6.40;99.90;;;;;;5102187;27;20474;-67
2022/11/17 07:06:10;;;;;;;7.95;4.03;;;6.40;99.90;;;;;;5137282;27;20039;-66
2022/11/17 07:08:36;;;;;;;7.10;4.75;;;6.30;99.90;;;;;;5118999;27;20039;-67
2022/11/17 07:11:04;;;;;;;6.78;3.53;;;6.50;99.90;;;;;;5137702;27;20047;-67
2022/11/17 07:13:32;;;;;;;8.85;5.15;;;6.40;99.90;;;;;;5136736;27;20479;-67
2022/11/17 07:16:06;;;;;;;6.30;4.35;;;6.50;99.90;;;;;;5137138;27;20440;-67
2022/11/17 07:18:33;;;;;;;6.28;4.20;;;6.40;99.90;;;;;;5118830;27;20043;-67
2022/11/17 07:21:04;;;;;;;6.85;4.75;;;6.80;99.90;;;;;;5118085;27;20054;-68
2022/11/17 07:23:31;;;;;;;6.72;4.53;;;6.40;99.90;;;;;;5118567;27;20043;-67
2022/11/17 07:25:57;;;;;;;6.63;4.82;;;6.40;99.90;;;;;;5136796;27;20047;-68
2022/11/17 07:28:23;;;;;;;6.50;3.92;;;6.70;99.90;;;;;;5136802;27;20086;-66
2022/11/17 07:30:49;;;;;;;4.60;3.25;;;6.30;99.90;;;;;;5136672;27;20060;-67
2022/11/17 07:33:14;;;;;;;4.20;2.40;;;6.60;99.90;;;;;;5101580;27;20047;-67
2022/11/17 07:35:40;;;;;;;5.93;3.50;;;6.90;99.90;;;;;;5137018;27;20179;-67
2022/11/17 07:38:07;;;;;;;4.88;3.50;;;6.70;99.90;;;;;;5136473;27;20043;-68
2022/11/17 07:40:33;;;;;;;4.75;3.40;;;6.60;99.90;;;;;;5136331;27;20486;-68
2022/11/17 07:42:59;;;;;;;4.88;3.38;;;6.50;99.90;;;;;;5136745;27;20133;-68
2022/11/17 07:45:24;;;;;;;4.65;3.00;;;7.10;99.90;;;;;;5136554;27;20047;-67
2022/11/17 07:47:58;;;;;;;4.25;2.47;;;6.60;99.90;;;;;;5118543;27;20382;-67
2022/11/17 07:50:25;;;;;;;;;;;6.30;99.90;;;;;;5119468;27;20051;-68
2022/11/17 07:52:51;;;;;;;4.35;2.63;;;6.80;99.90;;;;;;5117436;27;19919;-67
2022/11/17 07:55:17;;;;;;;4.00;2.53;;;6.40;99.90;;;;;;5136709;27;20482;-67
2022/11/17 07:57:43;;;;;;;4.63;2.85;;;6.30;99.90;;;;;;5117620;27;20055;-68
2022/11/17 08:00:10;;;;;;;4.22;2.17;;;6.40;99.90;;;;;;5117728;27;20058;-67
2022/11/17 08:02:35;;;;;;;3.17;1.92;;;6.40;99.90;;;;;;5118695;27;20051;-67
2022/11/17 08:05:01;;;;;;;3.67;2.17;;;7.10;99.90;;;;;;5136068;27;20054;-67
2022/11/17 08:07:26;;;;;;;4.57;2.65;;;6.60;99.90;;;;;;5136062;27;20481;-68
2022/11/17 08:09:52;;;;;;;4.57;1.98;;;6.30;99.90;;;;;;5135885;27;20458;-67
2022/11/17 08:12:18;;;;;;;3.47;2.15;;;6.50;99.90;;;;;;5135764;27;20065;-68
2022/11/17 08:14:43;;;;;;;3.72;1.90;;;6.80;99.90;;;;;;5135824;27;20079;-68
2022/11/17 08:17:09;;;;;;;3.70;2.03;;;6.60;99.90;;;;;;5135801;27;20391;-67
2022/11/17 08:19:35;;;;;;;3.47;2.05;;;6.40;99.90;;;;;;5117400;27;20395;-67
2022/11/17 08:22:00;;;;;;;4.72;2.15;;;6.30;99.90;;;;;;5135114;27;20051;-67
2022/11/17 08:24:26;;;;;;;3.38;2.15;;;6.40;99.90;;;;;;5135816;27;20047;-68
2022/11/17 08:26:52;;;;;;;4.65;2.33;;;6.40;99.90;;;;;;5135778;27;20078;-68
2022/11/17 08:29:18;;;;;;;3.08;2.08;;;6.70;99.90;;;;;;5100414;27;20368;-67
2022/11/17 08:31:45;;;;;;;5.05;2.60;;;6.80;99.90;;;;;;5135650;27;20127;-68
2022/11/17 08:34:13;;;;;;;4.93;2.47;;;7.20;99.90;;;;;;5135461;27;20444;-69
2022/11/17 08:36:39;;;;;;;4.43;2.20;;;6.30;99.90;;;;;;5083343;27;20542;-67
2022/11/17 08:39:05;;;;;;;4.70;2.63;;;6.40;99.90;;;;;;5135298;27;20118;-68
2022/11/17 08:41:31;;;;;;;4.50;2.20;;;6.70;99.90;;;;;;5100012;27;20386;-69
2022/11/17 08:43:57;;;;;;;3.28;2.33;;;7.40;99.90;;;;;;5135362;27;20051;-68
2022/11/17 08:46:24;;;;;;;5.00;2.50;;;6.70;99.90;;;;;;5117257;27;20100;-68
2022/11/17 08:48:50;;;;;;;3.00;2.15;;;6.60;99.90;;;;;;5135270;27;20079;-68
2022/11/17 08:51:15;;;;;;;4.25;2.63;;;6.70;99.90;;;;;;5134608;27;20079;-69
2022/11/17 08:53:41;;;;;;;4.40;2.53;;;6.70;99.90;;;;;;5099467;27;20047;-69
2022/11/17 08:56:09;;;;;;;3.83;1.80;;;6.40;99.90;;;;;;5082784;27;20114;-69
2022/11/17 08:58:43;;;;;;;3.78;2.25;;;6.40;99.90;;;;;;5135182;27;20035;-69
2022/11/17 09:01:11;;;;;;;5.82;2.33;;;6.40;99.90;;;;;;5135293;27;20047;-69
2022/11/17 09:03:37;;;;;;;3.70;2.55;;;6.60;99.90;;;;;;5116844;27;20043;-69
2022/11/17 09:06:04;;;;;;;4.85;3.40;;;6.30;99.90;;;;;;5116633;27;20053;-69
2022/11/17 09:08:30;;;;;;;5.10;3.05;;;6.30;99.90;;;;;;5099205;28;20095;-69
2022/11/17 09:10:56;;;;;;;4.65;2.67;;;6.80;99.90;;;;;;5099668;27;20092;-70
2022/11/17 09:13:22;;;;;;;5.43;3.13;;;6.40;99.90;;;;;;5083278;27;20038;-71
2022/11/17 09:15:47;;;;;;;4.53;3.83;;;6.60;99.90;;;;;;5099793;27;20539;-67
2022/11/17 09:18:13;;;;;;;5.07;3.10;;;6.40;99.90;;;;;;5116746;27;20046;-69
2022/11/17 09:20:39;;;;;;;4.20;2.58;;;6.60;99.90;;;;;;5135349;27;20039;-69
2022/11/17 09:23:04;;;;;;;7.18;3.42;;;6.50;99.90;;;;;;5116449;28;20374;-68
2022/11/17 09:25:30;;;;;;;4.97;3.08;;;6.50;99.90;;;;;;5134864;27;20075;-67
2022/11/17 09:27:56;;;;;;;4.70;2.60;;;6.60;99.90;;;;;;5135259;27;20415;-67
2022/11/17 09:30:22;;;;;;;4.18;2.92;;;6.70;99.90;;;;;;5117039;27;20462;-69
2022/11/17 09:32:49;;;;;;;4.90;3.63;;;6.50;99.90;;;;;;5135486;28;20034;-68
2022/11/17 09:35:15;;;;;;;5.50;3.40;;;6.70;99.90;;;;;;5116658;28;20042;-69
2022/11/17 09:37:41;;;;;;;5.35;2.88;;;6.30;99.90;;;;;;5134745;28;20124;-68
2022/11/17 09:40:12;;;;;;;4.93;3.28;;;6.40;99.90;;;;;;5099543;28;20035;-68
2022/11/17 09:42:39;;;;;;;5.57;3.53;;;6.40;99.90;;;;;;5134592;28;20035;-68
2022/11/17 09:45:18;;;;;;;4.65;3.10;;;6.70;99.90;;;;;;5134820;28;20104;-67
2022/11/17 09:47:55;;;;;;;5.43;3.25;;;6.50;99.90;;;;;;5134783;28;20039;-66
2022/11/17 09:50:37;;;;;;;5.05;2.88;;;6.50;99.90;;;;;;5134714;28;20040;-67
2022/11/17 09:53:40;;;;;;;6.50;3.55;;;6.60;99.90;;;;;;5099077;28;20051;-68
2022/11/17 09:56:09;;;;;;;6.35;3.55;;;6.50;99.90;;;;;;5114030;27;20149;-71
2022/11/17 09:58:57;;;;;;;6.07;3.38;;;6.20;99.90;;;;;;5147929;27;20031;-69
2022/11/17 10:01:27;;;;;;;4.80;2.70;;;6.30;99.90;;;;;;5125029;27;20038;-71
2022/11/17 10:03:54;;;;;;;5.57;4.03;;;6.40;99.90;;;;;;5146590;27;20035;-70
2022/11/17 10:06:27;;;;;;;5.88;3.53;;;6.30;99.90;;;;;;5128141;27;20090;-68
2022/11/17 10:09:18;;;;;;;5.60;3.50;;;6.40;99.90;;;;;;5125816;27;20042;-68
2022/11/17 10:11:46;;;;;;;5.28;3.75;;;6.20;99.90;;;;;;5145821;27;20050;-68
2022/11/17 10:14:17;;;;;;;4.82;3.60;;;7.00;99.90;;;;;;5144357;27;20039;-68
2022/11/17 10:16:57;;;;;;;5.85;3.53;;;6.70;99.90;;;;;;5145583;27;20030;-69
2022/11/17 10:19:31;;;;;;;5.10;3.38;;;6.30;99.90;;;;;;5124342;27;20074;-68
2022/11/17 10:22:15;;;;;;;5.50;3.70;;;6.30;99.90;;;;;;5149106;27;20043;-68
2022/11/17 10:24:49;;;;;;;5.70;3.70;;;6.60;99.90;;;;;;5130571;27;20126;-68
2022/11/17 10:27:33;;;;;;;5.47;3.45;;;6.40;99.90;;;;;;5147985;27;20074;-68
2022/11/17 10:30:21;;;;;;;5.15;3.08;;;6.60;99.90;;;;;;5148388;27;20332;-68
2022/11/17 10:32:49;;;;;;;4.53;2.85;;;6.30;99.90;;;;;;5144752;27;20096;-70
2022/11/17 10:35:21;;;;;;;5.45;3.42;;;6.30;99.90;;;;;;5111782;27;20045;-71
2022/11/17 10:37:57;;;;;;;6.03;3.20;;;7.20;99.90;;;;;;5112009;27;20117;-69
2022/11/17 10:40:26;;;;;;;5.22;3.53;;;6.40;99.90;;;;;;5112846;27;20041;-69
2022/11/17 10:43:10;;;;;;;5.55;2.97;;;6.60;99.90;;;;;;5129126;27;20047;-69
2022/11/17 10:45:56;;;;;;;4.78;3.40;;;6.30;99.90;;;;;;5115706;27;20042;-69
2022/11/17 10:48:29;;;;;;;5.10;3.42;;;6.30;99.90;;;;;;5100348;27;20054;-69
2022/11/17 10:50:56;;;;;;;5.28;4.05;;;6.20;99.90;;;;;;5112278;27;20416;-70
2022/11/17 10:53:35;;;;;;;5.00;3.22;;;6.20;99.90;;;;;;5128827;27;20099;-69
2022/11/17 10:56:06;;;;;;;6.82;4.40;;;6.20;99.90;;;;;;5131890;27;20046;-69
2022/11/17 10:58:53;;;;;;;7.60;4.38;;;6.20;99.90;;;;;;5129969;27;20298;-69
2022/11/17 11:01:36;;;;;;;6.38;4.15;;;6.30;99.90;;;;;;5129801;27;20466;-69
2022/11/17 11:04:04;;;;;;;7.47;4.70;;;6.40;99.90;;;;;;5113205;27;20038;-69
2022/11/17 11:06:34;;;;;;;7.25;4.38;;;6.40;99.90;;;;;;5129376;27;20038;-70
2022/11/17 11:09:14;;;;;;;6.53;4.32;;;7.10;99.90;;;;;;5146407;27;20031;-69
2022/11/17 11:11:52;;;;;;;6.50;4.63;;;6.80;99.90;;;;;;5148252;27;20042;-70
2022/11/17 11:14:49;;;;;;;7.40;4.38;;;6.40;99.90;;;;;;5126219;27;20042;-70
2022/11/17 11:17:16;;;;;;;7.38;4.93;;;6.30;99.90;;;;;;5133616;27;20578;-68
2022/11/17 11:19:51;;;;;;;7.50;4.68;;;6.30;99.90;;;;;;5127877;27;20042;-70
2022/11/17 11:22:26;;;;;;;6.60;4.28;;;6.40;99.90;;;;;;5128678;27;20070;-70
2022/11/17 11:25:20;;;;;;;8.57;5.38;;;6.40;99.90;;;;;;5113012;27;20059;-71
2022/11/17 11:28:20;;;;;;;10.27;5.30;;;6.50;99.90;;;;;;5110410;27;20051;-70
2022/11/17 11:31:18;;;;;;;7.28;5.03;;;6.40;99.90;;;;;;5129239;27;20046;-70
2022/11/17 11:33:51;;;;;;;7.45;5.63;;;6.50;99.90;;;;;;5110052;27;20122;-69
2022/11/17 11:36:33;;;;;;;7.57;5.22;;;6.50;99.90;;;;;;5109931;27;20043;-68
2022/11/17 11:39:11;;;;;;;10.68;4.78;;;7.40;99.90;;;;;;5127087;27;20039;-69
2022/11/17 11:42:06;;;;;;;6.68;4.28;;;6.50;99.90;;;;;;5144997;27;20043;-70
2022/11/17 11:44:47;;;;;;;8.07;5.13;;;6.40;99.90;;;;;;5124791;27;20063;-69
2022/11/17 11:47:22;;;;;;;7.38;4.68;;;6.50;99.90;;;;;;5128936;27;20070;-67
2022/11/17 11:49:59;;;;;;;12.48;8.85;;;6.50;99.90;;;;;;5143919;27;20042;-69
2022/11/17 11:52:32;;;;;;;6.72;4.38;;;6.80;99.90;;;;;;5127742;27;20110;-68
2022/11/17 11:55:00;;;;;;;6.20;4.68;;;7.30;99.90;;;;;;5126155;27;20051;-69
2022/11/17 11:57:34;;;;;;;8.23;5.30;;;6.60;99.90;;;;;;5111621;27;20046;-70
2022/11/17 12:00:02;;;;;;;7.40;5.40;;;6.60;99.90;;;;;;5125966;27;20038;-68
2022/11/17 12:03:02;;;;;;;6.45;4.75;;;6.50;99.90;;;;;;5147066;27;20039;-70
2022/11/17 12:05:47;;;;;;;7.65;5.40;;;6.60;99.90;;;;;;5110941;27;20359;-71
2022/11/17 12:08:31;;;;;;;7.60;5.20;;;6.60;99.90;;;;;;5125236;27;20104;-71
2022/11/17 12:13:52;;;;;;;7.65;5.47;;;6.60;99.90;;;;;;5146196;27;20039;-70
2022/11/17 12:16:28;;;;;;;6.22;4.53;;;7.10;99.90;;;;;;5145879;27;20046;-71
2022/11/17 12:18:54;;;;;;;7.93;5.63;;;6.50;99.90;;;;;;5127970;27;20090;-71
2022/11/17 12:21:24;;;;;;;7.20;5.20;;;6.50;99.90;;;;;;5145737;27;20039;-71
2022/11/17 12:24:11;;;;;;;7.10;4.75;;;6.60;99.90;;;;;;5127308;27;20047;-71
2022/11/17 12:26:37;;;;;;;7.25;5.10;;;6.60;99.90;;;;;;5146135;27;20058;-70
2022/11/17 12:29:21;;;;;;;6.40;4.40;;;7.10;99.90;;;;;;5144992;27;20039;-71
2022/11/17 12:31:51;;;;;;;5.72;4.10;;;6.50;99.90;;;;;;5124808;27;20038;-70
2022/11/17 12:34:25;;;;;;;6.53;4.05;;;7.00;99.90;;;;;;5125870;27;20050;-70
2022/11/17 12:37:13;;;;;;;7.57;4.53;;;7.00;99.90;;;;;;5125985;27;20043;-70
2022/11/17 12:40:00;;;;;;;6.80;4.72;;;6.50;99.90;;;;;;5108572;27;20509;-68
2022/11/17 12:42:29;;;;;;;6.68;4.10;;;6.70;99.90;;;;;;5129397;27;20055;-70
2022/11/17 12:45:08;;;;;;;5.82;4.28;;;6.60;99.90;;;;;;5101082;27;20057;-71
2022/11/17 12:47:39;;;;;;;4.97;4.10;;;6.50;99.90;;;;;;5099294;27;20492;-70
2022/11/17 12:50:20;;;;;;;7.53;4.40;;;6.50;99.90;;;;;;5099430;27;20483;-71
2022/11/17 12:53:18;;;;;;;6.85;5.03;;;6.50;99.90;;;;;;5134178;27;20043;-70
2022/11/17 12:55:58;;;;;;;5.60;3.50;;;6.60;99.90;;;;;;5099678;27;20388;-71
2022/11/17 12:58:23;;;;;;;6.22;4.72;;;6.60;99.90;;;;;;5134846;27;20104;-71
2022/11/17 13:01:16;;;;;;;5.65;3.70;;;6.90;99.90;;;;;;5134727;27;20043;-70
2022/11/17 13:04:03;;;;;;;6.13;4.88;;;6.70;99.90;;;;;;5116712;27;20039;-70
2022/11/17 13:06:29;;;;;;;7.90;4.63;;;6.60;99.90;;;;;;5116643;27;20069;-69
2022/11/17 13:08:57;;;;;;;6.22;4.43;;;6.60;99.90;;;;;;5134887;27;20491;-70
2022/11/17 13:11:24;;;;;;;8.30;4.65;;;6.70;99.90;;;;;;5099092;27;20053;-70
2022/11/17 13:14:06;;;;;;;5.57;3.47;;;6.60;99.90;;;;;;5134346;27;20059;-70
2022/11/17 13:16:33;;;;;;;6.30;4.00;;;6.60;99.90;;;;;;5133983;27;20062;-69
2022/11/17 13:18:59;;;;;;;6.95;3.75;;;7.10;99.90;;;;;;5115931;27;20050;-69
2022/11/17 13:21:24;;;;;;;7.03;4.68;;;6.50;99.90;;;;;;5098593;27;20047;-70
2022/11/17 13:23:51;;;;;;;7.30;4.50;;;7.30;99.90;;;;;;5134374;27;20130;-70
2022/11/17 13:26:17;;;;;;;8.25;4.80;;;7.10;99.90;;;;;;5134383;27;20393;-70
2022/11/17 13:28:44;;;;;;;6.80;4.65;;;6.80;99.90;;;;;;5116115;28;20118;-70
2022/11/17 13:31:18;;;;;;;6.82;4.63;;;6.70;99.90;;;;;;5116003;28;20047;-70
2022/11/17 13:34:12;;;;;;;5.30;3.83;;;7.10;99.90;;;;;;5134128;27;20046;-70
2022/11/17 13:36:58;;;;;;;5.10;3.70;;;6.70;99.90;;;;;;5134120;28;20130;-68
2022/11/17 13:39:27;;;;;;;4.40;2.97;;;6.80;99.90;;;;;;5115860;28;20043;-68
2022/11/17 13:41:54;;;;;;;6.28;4.43;;;7.30;99.90;;;;;;5116427;28;20047;-69
2022/11/17 13:44:23;;;;;;;4.68;3.30;;;6.90;99.90;;;;;;5112150;28;20063;-69
2022/11/17 13:46:49;;;;;;;4.45;3.28;;;7.00;99.90;;;;;;5111624;28;20059;-69